sensor_id;sensor_type;location;lat;lon;timestamp;pressure;altitude;pressure_sealevel;temperature;humidity
64253;BME280;50592;52.958;-7.470;2023-02-21T00:01:56;100703.28;;;10.34;100.00
64253;BME280;50592;52.958;-7.470;2023-02-21T00:04:41;100700.38;;;10.27;100.00
64253;BME280;50592;52.958;-7.470;2023-02-21T00:07:27;100706.59;;;10.26;100.00
64253;BME280;50592;52.958;-7.470;2023-02-21T00:10:13;100704.81;;;10.26;100.00
64253;BME280;50592;52.958;-7.470;2023-02-21T00:12:58;100714.78;;;10.23;100.00
64253;BME280;50592;52.958;-7.470;2023-02-21T00:15:42;100711.19;;;10.24;100.00
64253;BME280;50592;52.958;-7.470;2023-02-21T00:18:26;100704.53;;;10.29;100.00
64253;BME280;50592;52.958;-7.470;2023-02-21T00:21:11;100707.16;;;10.29;100.00
64253;BME280;50592;52.958;-7.470;2023-02-21T00:23:55;100707.59;;;10.35;100.00
64253;BME280;50592;52.958;-7.470;2023-02-21T00:26:40;100705.09;;;10.33;100.00
64253;BME280;50592;52.958;-7.470;2023-02-21T00:29:25;100706.06;;;10.32;100.00
64253;BME280;50592;52.958;-7.470;2023-02-21T00:32:09;100706.06;;;10.32;100.00
64253;BME280;50592;52.958;-7.470;2023-02-21T00:34:53;100716.06;;;10.38;100.00
64253;BME280;50592;52.958;-7.470;2023-02-21T00:37:38;100705.41;;;10.40;100.00
64253;BME280;50592;52.958;-7.470;2023-02-21T00:40:22;100699.25;;;10.39;100.00
64253;BME280;50592;52.958;-7.470;2023-02-21T00:43:07;100699.13;;;10.41;100.00
64253;BME280;50592;52.958;-7.470;2023-02-21T00:45:51;100699.13;;;10.41;100.00
64253;BME280;50592;52.958;-7.470;2023-02-21T00:48:35;100694.81;;;10.40;100.00
64253;BME280;50592;52.958;-7.470;2023-02-21T00:51:20;100700.94;;;10.40;100.00
64253;BME280;50592;52.958;-7.470;2023-02-21T00:54:04;100698.41;;;10.39;100.00
64253;BME280;50592;52.958;-7.470;2023-02-21T00:56:48;100699.41;;;10.38;100.00
64253;BME280;50592;52.958;-7.470;2023-02-21T00:59:33;100700.50;;;10.35;100.00
64253;BME280;50592;52.958;-7.470;2023-02-21T01:02:17;100693.56;;;10.34;100.00
64253;BME280;50592;52.958;-7.470;2023-02-21T01:05:02;100689.09;;;10.35;100.00
64253;BME280;50592;52.958;-7.470;2023-02-21T01:07:47;100682.84;;;10.36;100.00
64253;BME280;50592;52.958;-7.470;2023-02-21T01:10:31;100687.00;;;10.38;100.00
64253;BME280;50592;52.958;-7.470;2023-02-21T01:13:15;100680.19;;;10.36;100.00
64253;BME280;50592;52.958;-7.470;2023-02-21T01:15:59;100672.56;;;10.33;100.00
64253;BME280;50592;52.958;-7.470;2023-02-21T01:18:45;100678.09;;;10.29;100.00
64253;BME280;50592;52.958;-7.470;2023-02-21T01:21:30;100680.75;;;10.29;100.00
64253;BME280;50592;52.958;-7.470;2023-02-21T01:24:14;100674.75;;;10.27;100.00
64253;BME280;50592;52.958;-7.470;2023-02-21T01:27:00;100670.31;;;10.28;100.00
64253;BME280;50592;52.958;-7.470;2023-02-21T01:29:47;100671.44;;;10.25;100.00
64253;BME280;50592;52.958;-7.470;2023-02-21T01:32:32;100668.09;;;10.23;100.00
64253;BME280;50592;52.958;-7.470;2023-02-21T01:35:16;100667.09;;;10.24;100.00
64253;BME280;50592;52.958;-7.470;2023-02-21T01:38:01;100659.44;;;10.21;100.00
64253;BME280;50592;52.958;-7.470;2023-02-21T01:40:45;100660.72;;;10.17;100.00
64253;BME280;50592;52.958;-7.470;2023-02-21T01:43:29;100665.16;;;10.16;100.00
64253;BME280;50592;52.958;-7.470;2023-02-21T01:46:16;100663.50;;;10.15;100.00
64253;BME280;50592;52.958;-7.470;2023-02-21T01:49:14;100656.53;;;10.14;100.00
64253;BME280;50592;52.958;-7.470;2023-02-21T01:52:02;100657.78;;;10.10;100.00
64253;BME280;50592;52.958;-7.470;2023-02-21T01:54:50;100654.41;;;10.08;100.00
64253;BME280;50592;52.958;-7.470;2023-02-21T01:57:37;100649.00;;;10.10;100.00
64253;BME280;50592;52.958;-7.470;2023-02-21T02:00:22;100651.91;;;10.07;100.00
64253;BME280;50592;52.958;-7.470;2023-02-21T02:03:09;100644.84;;;10.07;100.00
64253;BME280;50592;52.958;-7.470;2023-02-21T02:06:00;100649.00;;;10.10;100.00
64253;BME280;50592;52.958;-7.470;2023-02-21T02:08:46;100645.97;;;10.04;100.00
64253;BME280;50592;52.958;-7.470;2023-02-21T02:23:31;100629.94;;;9.96;100.00
64253;BME280;50592;52.958;-7.470;2023-02-21T02:36:39;100627.44;;;9.95;100.00
64253;BME280;50592;52.958;-7.470;2023-02-21T02:39:50;100614.66;;;9.90;100.00
64253;BME280;50592;52.958;-7.470;2023-02-21T02:45:12;100613.25;;;9.86;100.00
64253;BME280;50592;52.958;-7.470;2023-02-21T02:47:43;100609.34;;;9.80;100.00
64253;BME280;50592;52.958;-7.470;2023-02-21T02:50:10;100612.25;;;9.77;100.00
64253;BME280;50592;52.958;-7.470;2023-02-21T02:52:48;100611.28;;;9.78;100.00
64253;BME280;50592;52.958;-7.470;2023-02-21T02:57:53;100593.75;;;9.67;100.00
64253;BME280;50592;52.958;-7.470;2023-02-21T03:00:19;100601.53;;;9.68;100.00
64253;BME280;50592;52.958;-7.470;2023-02-21T03:02:52;100597.09;;;9.69;100.00
64253;BME280;50592;52.958;-7.470;2023-02-21T03:10:41;100588.16;;;9.50;100.00
64253;BME280;50592;52.958;-7.470;2023-02-21T03:13:17;100578.00;;;9.46;100.00
64253;BME280;50592;52.958;-7.470;2023-02-21T03:15:51;100583.28;;;9.46;100.00
64253;BME280;50592;52.958;-7.470;2023-02-21T03:21:25;100578.66;;;9.38;100.00
64253;BME280;50592;52.958;-7.470;2023-02-21T03:23:56;100580.59;;;9.36;100.00
64253;BME280;50592;52.958;-7.470;2023-02-21T03:26:25;100575.31;;;9.36;100.00
64253;BME280;50592;52.958;-7.470;2023-02-21T03:28:56;100575.31;;;9.36;100.00
64253;BME280;50592;52.958;-7.470;2023-02-21T03:31:26;100568.25;;;9.36;100.00
64253;BME280;50592;52.958;-7.470;2023-02-21T03:33:54;100574.47;;;9.35;100.00
64253;BME280;50592;52.958;-7.470;2023-02-21T03:36:21;100571.84;;;9.35;100.00
64253;BME280;50592;52.958;-7.470;2023-02-21T03:38:47;100571.97;;;9.34;100.00
64253;BME280;50592;52.958;-7.470;2023-02-21T03:41:14;100562.97;;;9.36;100.00
64253;BME280;50592;52.958;-7.470;2023-02-21T03:43:40;100559.50;;;9.36;100.00
64253;BME280;50592;52.958;-7.470;2023-02-21T03:46:06;100558.38;;;9.38;100.00
64253;BME280;50592;52.958;-7.470;2023-02-21T03:48:33;100560.19;;;9.38;100.00
64253;BME280;50592;52.958;-7.470;2023-02-21T03:51:08;100551.56;;;9.36;100.00
64253;BME280;50592;52.958;-7.470;2023-02-21T03:53:35;100552.28;;;9.38;100.00
64253;BME280;50592;52.958;-7.470;2023-02-21T03:56:02;100547.69;;;9.40;100.00
64253;BME280;50592;52.958;-7.470;2023-02-21T03:58:37;100549.25;;;9.42;100.00
64253;BME280;50592;52.958;-7.470;2023-02-21T04:01:04;100549.78;;;9.46;100.00
64253;BME280;50592;52.958;-7.470;2023-02-21T04:03:30;100541.47;;;9.51;100.00
64253;BME280;50592;52.958;-7.470;2023-02-21T04:06:01;100537.88;;;9.52;100.00
64253;BME280;50592;52.958;-7.470;2023-02-21T04:08:29;100535.81;;;9.55;100.00
64253;BME280;50592;52.958;-7.470;2023-02-21T04:10:55;100528.56;;;9.58;100.00
64253;BME280;50592;52.958;-7.470;2023-02-21T04:13:24;100522.34;;;9.59;100.00
64253;BME280;50592;52.958;-7.470;2023-02-21T04:15:51;100526.78;;;9.58;100.00
64253;BME280;50592;52.958;-7.470;2023-02-21T04:18:17;100523.16;;;9.59;100.00
64253;BME280;50592;52.958;-7.470;2023-02-21T04:20:44;100517.22;;;9.57;100.00
64253;BME280;50592;52.958;-7.470;2023-02-21T04:23:19;100528.44;;;9.59;100.00
64253;BME280;50592;52.958;-7.470;2023-02-21T04:25:45;100515.66;;;9.54;100.00
64253;BME280;50592;52.958;-7.470;2023-02-21T04:28:15;100514.81;;;9.54;100.00
64253;BME280;50592;52.958;-7.470;2023-02-21T04:30:41;100514.13;;;9.52;100.00
64253;BME280;50592;52.958;-7.470;2023-02-21T04:33:07;100513.56;;;9.48;100.00
64253;BME280;50592;52.958;-7.470;2023-02-21T04:35:33;100506.06;;;9.43;100.00
64253;BME280;50592;52.958;-7.470;2023-02-21T04:38:09;100507.97;;;9.41;100.00
64253;BME280;50592;52.958;-7.470;2023-02-21T04:40:35;100502.97;;;9.38;100.00
64253;BME280;50592;52.958;-7.470;2023-02-21T04:43:01;100504.81;;;9.38;100.00
64253;BME280;50592;52.958;-7.470;2023-02-21T04:45:27;100508.25;;;9.38;100.00
64253;BME280;50592;52.958;-7.470;2023-02-21T04:47:53;100505.22;;;9.33;100.00
64253;BME280;50592;52.958;-7.470;2023-02-21T04:50:19;100502.72;;;9.32;100.00
64253;BME280;50592;52.958;-7.470;2023-02-21T04:52:46;100499.53;;;9.38;100.00
64253;BME280;50592;52.958;-7.470;2023-02-21T04:55:13;100493.97;;;9.41;100.00
64253;BME280;50592;52.958;-7.470;2023-02-21T04:57:39;100500.91;;;9.42;100.00
64253;BME280;50592;52.958;-7.470;2023-02-21T05:00:05;100496.34;;;9.44;100.00
64253;BME280;50592;52.958;-7.470;2023-02-21T05:02:33;100493.56;;;9.46;100.00
64253;BME280;50592;52.958;-7.470;2023-02-21T05:04:58;100485.66;;;9.46;100.00
64253;BME280;50592;52.958;-7.470;2023-02-21T05:07:24;100485.78;;;9.44;100.00
64253;BME280;50592;52.958;-7.470;2023-02-21T05:09:50;100490.34;;;9.42;100.00
64253;BME280;50592;52.958;-7.470;2023-02-21T05:12:16;100487.16;;;9.38;100.00
64253;BME280;50592;52.958;-7.470;2023-02-21T05:14:42;100485.63;;;9.36;100.00
64253;BME280;50592;52.958;-7.470;2023-02-21T05:17:08;100483.69;;;9.38;100.00
64253;BME280;50592;52.958;-7.470;2023-02-21T05:19:34;100486.19;;;9.39;100.00
64253;BME280;50592;52.958;-7.470;2023-02-21T05:22:01;100481.47;;;9.43;100.00
64253;BME280;50592;52.958;-7.470;2023-02-21T05:24:29;100466.34;;;9.45;100.00
64253;BME280;50592;52.958;-7.470;2023-02-21T05:26:56;100470.09;;;9.42;100.00
64253;BME280;50592;52.958;-7.470;2023-02-21T05:29:22;100459.53;;;9.33;100.00
64253;BME280;50592;52.958;-7.470;2023-02-21T05:31:48;100464.34;;;9.27;100.00
64253;BME280;50592;52.958;-7.470;2023-02-21T05:34:15;100470.03;;;9.23;100.00
64253;BME280;50592;52.958;-7.470;2023-02-21T05:36:41;100459.31;;;9.14;100.00
64253;BME280;50592;52.958;-7.470;2023-02-21T05:39:08;100468.47;;;9.10;100.00
64253;BME280;50592;52.958;-7.470;2023-02-21T05:41:34;100461.25;;;9.02;100.00
64253;BME280;50592;52.958;-7.470;2023-02-21T05:44:01;100463.72;;;8.94;100.00
64253;BME280;50592;52.958;-7.470;2023-02-21T05:46:31;100460.63;;;8.89;100.00
64253;BME280;50592;52.958;-7.470;2023-02-21T05:48:58;100456.75;;;8.83;100.00
64253;BME280;50592;52.958;-7.470;2023-02-21T05:51:25;100457.00;;;8.80;100.00
64253;BME280;50592;52.958;-7.470;2023-02-21T05:53:51;100453.78;;;8.76;100.00
64253;BME280;50592;52.958;-7.470;2023-02-21T05:56:19;100453.09;;;8.74;100.00
64253;BME280;50592;52.958;-7.470;2023-02-21T05:58:46;100446.84;;;8.75;100.00
64253;BME280;50592;52.958;-7.470;2023-02-21T06:01:12;100451.03;;;8.78;100.00
64253;BME280;50592;52.958;-7.470;2023-02-21T06:03:38;100447.97;;;8.83;100.00
64253;BME280;50592;52.958;-7.470;2023-02-21T06:06:04;100455.34;;;8.89;100.00
64253;BME280;50592;52.958;-7.470;2023-02-21T06:08:30;100434.00;;;8.92;100.00
64253;BME280;50592;52.958;-7.470;2023-02-21T06:10:56;100437.22;;;8.96;100.00
64253;BME280;50592;52.958;-7.470;2023-02-21T06:13:22;100433.31;;;8.90;100.00
64253;BME280;50592;52.958;-7.470;2023-02-21T06:15:47;100427.22;;;8.89;100.00
64253;BME280;50592;52.958;-7.470;2023-02-21T06:18:14;100429.56;;;8.92;100.00
64253;BME280;50592;52.958;-7.470;2023-02-21T06:20:40;100431.94;;;8.96;100.00
64253;BME280;50592;52.958;-7.470;2023-02-21T06:23:06;100429.75;;;9.01;100.00
64253;BME280;50592;52.958;-7.470;2023-02-21T06:25:32;100427.81;;;9.03;100.00
64253;BME280;50592;52.958;-7.470;2023-02-21T06:27:57;100422.53;;;9.03;100.00
64253;BME280;50592;52.958;-7.470;2023-02-21T06:30:24;100420.59;;;9.05;100.00
64253;BME280;50592;52.958;-7.470;2023-02-21T06:32:49;100425.03;;;9.04;100.00
64253;BME280;50592;52.958;-7.470;2023-02-21T06:35:15;100427.69;;;9.04;100.00
64253;BME280;50592;52.958;-7.470;2023-02-21T06:37:41;100416.56;;;9.01;100.00
64253;BME280;50592;52.958;-7.470;2023-02-21T06:40:07;100414.06;;;8.99;100.00
64253;BME280;50592;52.958;-7.470;2023-02-21T06:42:33;100422.25;;;8.96;100.00
64253;BME280;50592;52.958;-7.470;2023-02-21T06:44:59;100424.75;;;8.98;100.00
64253;BME280;50592;52.958;-7.470;2023-02-21T06:47:25;100423.91;;;8.97;100.00
64253;BME280;50592;52.958;-7.470;2023-02-21T06:49:50;100415.28;;;8.95;100.00
64253;BME280;50592;52.958;-7.470;2023-02-21T06:52:16;100410.84;;;8.96;100.00
64253;BME280;50592;52.958;-7.470;2023-02-21T06:54:42;100412.78;;;8.93;100.00
64253;BME280;50592;52.958;-7.470;2023-02-21T06:57:08;100406.81;;;8.91;100.00
64253;BME280;50592;52.958;-7.470;2023-02-21T06:59:33;100405.97;;;8.91;100.00
64253;BME280;50592;52.958;-7.470;2023-02-21T07:01:59;100397.38;;;8.89;100.00
64253;BME280;50592;52.958;-7.470;2023-02-21T07:04:27;100402.38;;;8.92;100.00
64253;BME280;50592;52.958;-7.470;2023-02-21T07:06:53;100405.84;;;8.92;100.00
64253;BME280;50592;52.958;-7.470;2023-02-21T07:09:19;100402.09;;;8.95;100.00
64253;BME280;50592;52.958;-7.470;2023-02-21T07:11:45;100394.19;;;8.95;100.00
64253;BME280;50592;52.958;-7.470;2023-02-21T07:14:12;100394.19;;;8.95;100.00
64253;BME280;50592;52.958;-7.470;2023-02-21T07:16:37;100401.16;;;8.96;100.00
64253;BME280;50592;52.958;-7.470;2023-02-21T07:19:03;100401.97;;;8.97;100.00
64253;BME280;50592;52.958;-7.470;2023-02-21T07:21:29;100399.47;;;8.95;100.00
64253;BME280;50592;52.958;-7.470;2023-02-21T07:23:55;100387.25;;;8.94;100.00
64253;BME280;50592;52.958;-7.470;2023-02-21T07:26:21;100391.00;;;8.91;100.00
64253;BME280;50592;52.958;-7.470;2023-02-21T07:28:47;100381.28;;;8.92;100.00
64253;BME280;50592;52.958;-7.470;2023-02-21T07:31:13;100389.31;;;8.90;100.00
64253;BME280;50592;52.958;-7.470;2023-02-21T07:33:39;100384.19;;;8.89;100.00
64253;BME280;50592;52.958;-7.470;2023-02-21T07:36:05;100386.41;;;8.84;100.00
64253;BME280;50592;52.958;-7.470;2023-02-21T07:38:31;100378.78;;;8.80;100.00
64253;BME280;50592;52.958;-7.470;2023-02-21T07:40:58;100386.69;;;8.80;100.00
64253;BME280;50592;52.958;-7.470;2023-02-21T07:43:25;100392.09;;;8.79;100.00
64253;BME280;50592;52.958;-7.470;2023-02-21T07:45:52;100395.69;;;8.78;100.00
64253;BME280;50592;52.958;-7.470;2023-02-21T07:48:17;100388.75;;;8.77;100.00
64253;BME280;50592;52.958;-7.470;2023-02-21T07:50:43;100375.97;;;8.72;100.00
64253;BME280;50592;52.958;-7.470;2023-02-21T07:53:10;100386.91;;;8.67;100.00
64253;BME280;50592;52.958;-7.470;2023-02-21T07:55:38;100382.84;;;8.63;100.00
64253;BME280;50592;52.958;-7.470;2023-02-21T07:58:04;100378.69;;;8.61;100.00
64253;BME280;50592;52.958;-7.470;2023-02-21T08:00:30;100387.72;;;8.58;100.00
64253;BME280;50592;52.958;-7.470;2023-02-21T08:02:56;100380.75;;;8.57;100.00
64253;BME280;50592;52.958;-7.470;2023-02-21T08:05:22;100390.47;;;8.56;100.00
64253;BME280;50592;52.958;-7.470;2023-02-21T08:07:48;100385.44;;;8.53;100.00
64253;BME280;50592;52.958;-7.470;2023-02-21T08:10:20;100383.53;;;8.55;100.00
64253;BME280;50592;52.958;-7.470;2023-02-21T08:12:46;100387.25;;;8.53;100.00
64253;BME280;50592;52.958;-7.470;2023-02-21T08:15:12;100381.13;;;8.52;100.00
64253;BME280;50592;52.958;-7.470;2023-02-21T08:17:37;100381.59;;;8.58;100.00
64253;BME280;50592;52.958;-7.470;2023-02-21T08:20:03;100381.34;;;8.61;100.00
64253;BME280;50592;52.958;-7.470;2023-02-21T08:22:30;100380.50;;;8.60;100.00
64253;BME280;50592;52.958;-7.470;2023-02-21T08:24:56;100384.81;;;8.61;100.00
64253;BME280;50592;52.958;-7.470;2023-02-21T08:27:22;100379.28;;;8.64;100.00
64253;BME280;50592;52.958;-7.470;2023-02-21T08:29:51;100373.75;;;8.67;100.00
64253;BME280;50592;52.958;-7.470;2023-02-21T08:32:18;100381.66;;;8.67;100.00
64253;BME280;50592;52.958;-7.470;2023-02-21T08:34:45;100374.56;;;8.68;100.00
64253;BME280;50592;52.958;-7.470;2023-02-21T08:37:11;100376.50;;;8.66;100.00
64253;BME280;50592;52.958;-7.470;2023-02-21T08:39:51;100378.16;;;8.67;100.00
64253;BME280;50592;52.958;-7.470;2023-02-21T08:42:18;100377.47;;;8.65;100.00
64253;BME280;50592;52.958;-7.470;2023-02-21T08:44:45;100380.09;;;8.65;100.00
64253;BME280;50592;52.958;-7.470;2023-02-21T08:47:12;100386.34;;;8.64;100.00
64253;BME280;50592;52.958;-7.470;2023-02-21T08:49:38;100374.94;;;8.63;100.00
64253;BME280;50592;52.958;-7.470;2023-02-21T08:52:06;100371.91;;;8.68;100.00
64253;BME280;50592;52.958;-7.470;2023-02-21T08:54:32;100380.66;;;8.68;100.00
64253;BME280;50592;52.958;-7.470;2023-02-21T08:56:59;100370.84;;;8.71;100.00
64253;BME280;50592;52.958;-7.470;2023-02-21T08:59:25;100365.56;;;8.71;100.00
64253;BME280;50592;52.958;-7.470;2023-02-21T09:01:53;100372.34;;;8.73;100.00
64253;BME280;50592;52.958;-7.470;2023-02-21T09:04:18;100366.41;;;8.71;100.00
64253;BME280;50592;52.958;-7.470;2023-02-21T09:06:45;100361.00;;;8.73;100.00
64253;BME280;50592;52.958;-7.470;2023-02-21T09:09:10;100367.22;;;8.72;100.00
64253;BME280;50592;52.958;-7.470;2023-02-21T09:11:37;100354.63;;;8.75;100.00
64253;BME280;50592;52.958;-7.470;2023-02-21T09:14:03;100364.75;;;8.80;100.00
64253;BME280;50592;52.958;-7.470;2023-02-21T09:16:31;100368.50;;;8.87;100.00
64253;BME280;50592;52.958;-7.470;2023-02-21T09:18:58;100361.16;;;8.91;100.00
64253;BME280;50592;52.958;-7.470;2023-02-21T09:21:26;100363.53;;;8.94;100.00
64253;BME280;50592;52.958;-7.470;2023-02-21T09:23:56;100351.75;;;8.98;100.00
64253;BME280;50592;52.958;-7.470;2023-02-21T09:26:24;100356.19;;;8.98;100.00
64253;BME280;50592;52.958;-7.470;2023-02-21T09:28:51;100356.78;;;9.01;100.00
64253;BME280;50592;52.958;-7.470;2023-02-21T09:31:18;100349.53;;;9.03;100.00
64253;BME280;50592;52.958;-7.470;2023-02-21T09:33:44;100345.38;;;9.01;100.00
64253;BME280;50592;52.958;-7.470;2023-02-21T09:36:10;100353.28;;;9.01;100.00
64253;BME280;50592;52.958;-7.470;2023-02-21T09:38:37;100343.81;;;8.98;100.00
64253;BME280;50592;52.958;-7.470;2023-02-21T09:41:08;100342.75;;;9.01;100.00
64253;BME280;50592;52.958;-7.470;2023-02-21T09:43:46;100336.06;;;9.06;100.00
64253;BME280;50592;52.958;-7.470;2023-02-21T09:46:33;100326.94;;;9.01;100.00
64253;BME280;50592;52.958;-7.470;2023-02-21T09:49:02;100331.09;;;9.03;100.00
64253;BME280;50592;52.958;-7.470;2023-02-21T09:51:30;100327.34;;;9.06;100.00
64253;BME280;50592;52.958;-7.470;2023-02-21T09:53:58;100322.34;;;9.03;100.00
64253;BME280;50592;52.958;-7.470;2023-02-21T09:56:33;100324.31;;;9.11;100.00
64253;BME280;50592;52.958;-7.470;2023-02-21T09:59:00;100328.31;;;9.15;100.00
64253;BME280;50592;52.958;-7.470;2023-02-21T10:10:20;100317.63;;;9.46;100.00
64253;BME280;50592;52.958;-7.470;2023-02-21T10:12:52;100310.81;;;9.53;100.00
64253;BME280;50592;52.958;-7.470;2023-02-21T10:15:36;100306.63;;;9.61;100.00
64253;BME280;50592;52.958;-7.470;2023-02-21T10:18:27;100315.66;;;9.68;100.00
64253;BME280;50592;52.958;-7.470;2023-02-21T10:20:57;100309.41;;;9.69;100.00
64253;BME280;50592;52.958;-7.470;2023-02-21T10:23:46;100298.28;;;9.65;100.00
64253;BME280;50592;52.958;-7.470;2023-02-21T10:26:17;100307.19;;;9.64;100.00
64253;BME280;50592;52.958;-7.470;2023-02-21T10:28:44;100303.44;;;9.67;100.00
64253;BME280;50592;52.958;-7.470;2023-02-21T10:31:15;100310.38;;;9.68;100.00
64253;BME280;50592;52.958;-7.470;2023-02-21T10:33:43;100312.19;;;9.67;100.00
64253;BME280;50592;52.958;-7.470;2023-02-21T10:36:16;100303.56;;;9.75;100.00
64253;BME280;50592;52.958;-7.470;2023-02-21T10:39:31;100300.06;;;9.85;100.00
64253;BME280;50592;52.958;-7.470;2023-02-21T10:41:34;100301.84;;;9.94;100.00
64253;BME280;50592;52.958;-7.470;2023-02-21T10:44:07;100301.13;;;10.02;100.00
64253;BME280;50592;52.958;-7.470;2023-02-21T10:47:00;100296.66;;;10.12;100.00
64253;BME280;50592;52.958;-7.470;2023-02-21T10:49:37;100291.63;;;10.19;100.00
64253;BME280;50592;52.958;-7.470;2023-02-21T10:54:34;100278.88;;;10.33;100.00
64253;BME280;50592;52.958;-7.470;2023-02-21T10:57:02;100276.91;;;10.45;100.00
64253;BME280;50592;52.958;-7.470;2023-02-21T10:59:31;100282.59;;;10.50;100.00
64253;BME280;50592;52.958;-7.470;2023-02-21T11:01:58;100277.28;;;10.50;100.00
64253;BME280;50592;52.958;-7.470;2023-02-21T11:04:32;100279.63;;;10.53;100.00
64253;BME280;50592;52.958;-7.470;2023-02-21T11:07:08;100278.25;;;10.59;100.00
64253;BME280;50592;52.958;-7.470;2023-02-21T11:09:46;100275.75;;;10.57;100.00
64253;BME280;50592;52.958;-7.470;2023-02-21T11:14:42;100264.72;;;10.62;100.00
64253;BME280;50592;52.958;-7.470;2023-02-21T11:19:52;100266.16;;;10.74;100.00
64253;BME280;50592;52.958;-7.470;2023-02-21T11:25:47;100258.09;;;10.76;100.00
64253;BME280;50592;52.958;-7.470;2023-02-21T11:30:31;100248.03;;;10.79;100.00
64253;BME280;50592;52.958;-7.470;2023-02-21T11:32:59;100247.44;;;10.86;100.00
64253;BME280;50592;52.958;-7.470;2023-02-21T11:35:40;100242.16;;;10.86;100.00
64253;BME280;50592;52.958;-7.470;2023-02-21T11:40:55;100238.97;;;10.82;100.00
64253;BME280;50592;52.958;-7.470;2023-02-21T11:43:25;100242.47;;;10.83;100.00
64253;BME280;50592;52.958;-7.470;2023-02-21T11:46:03;100237.69;;;10.86;100.00
64253;BME280;50592;52.958;-7.470;2023-02-21T11:49:00;100232.25;;;10.88;100.00
64253;BME280;50592;52.958;-7.470;2023-02-21T11:54:03;100221.75;;;10.96;100.00
64253;BME280;50592;52.958;-7.470;2023-02-21T12:02:45;100221.34;;;10.91;100.00
64253;BME280;50592;52.958;-7.470;2023-02-21T12:08:47;100204.22;;;10.95;100.00
64253;BME280;50592;52.958;-7.470;2023-02-21T12:19:51;100191.16;;;11.20;100.00
64253;BME280;50592;52.958;-7.470;2023-02-21T12:25:19;100179.00;;;11.27;100.00
64253;BME280;50592;52.958;-7.470;2023-02-21T12:28:04;100169.59;;;11.33;100.00
64253;BME280;50592;52.958;-7.470;2023-02-21T12:38:41;100150.28;;;11.41;100.00
64253;BME280;50592;52.958;-7.470;2023-02-21T12:41:23;100144.84;;;11.43;100.00
64253;BME280;50592;52.958;-7.470;2023-02-21T12:46:51;100151.56;;;11.63;100.00
64253;BME280;50592;52.958;-7.470;2023-02-21T12:49:52;100145.78;;;11.68;100.00
64253;BME280;50592;52.958;-7.470;2023-02-21T12:52:54;100137.00;;;11.68;100.00
64253;BME280;50592;52.958;-7.470;2023-02-21T12:55:39;100139.69;;;11.76;100.00
64253;BME280;50592;52.958;-7.470;2023-02-21T12:58:37;100131.09;;;11.82;100.00
64253;BME280;50592;52.958;-7.470;2023-02-21T13:06:31;100115.88;;;11.76;100.00
64253;BME280;50592;52.958;-7.470;2023-02-21T13:09:11;100112.69;;;11.72;100.00
64253;BME280;50592;52.958;-7.470;2023-02-21T13:11:40;100119.00;;;11.71;100.00
64253;BME280;50592;52.958;-7.470;2023-02-21T13:14:14;100117.88;;;11.82;100.00
64253;BME280;50592;52.958;-7.470;2023-02-21T13:16:41;100112.25;;;11.85;100.00
64253;BME280;50592;52.958;-7.470;2023-02-21T13:19:10;100112.59;;;11.90;100.00
64253;BME280;50592;52.958;-7.470;2023-02-21T13:29:33;100100.53;;;12.04;100.00
64253;BME280;50592;52.958;-7.470;2023-02-21T13:32:06;100093.50;;;12.13;100.00
64253;BME280;50592;52.958;-7.470;2023-02-21T13:34:59;100096.63;;;12.17;100.00
64253;BME280;50592;52.958;-7.470;2023-02-21T13:37:29;100084.22;;;12.34;100.00
64253;BME280;50592;52.958;-7.470;2023-02-21T13:40:04;100078.94;;;12.51;100.00
64253;BME280;50592;52.958;-7.470;2023-02-21T13:42:37;100081.41;;;12.52;100.00
64253;BME280;50592;52.958;-7.470;2023-02-21T13:55:34;100059.38;;;12.35;100.00
64253;BME280;50592;52.958;-7.470;2023-02-21T14:10:53;100064.47;;;12.03;100.00
64253;BME280;50592;52.958;-7.470;2023-02-21T14:18:56;100039.44;;;11.89;100.00
64253;BME280;50592;52.958;-7.470;2023-02-21T14:24:18;100031.78;;;11.70;100.00
64253;BME280;50592;52.958;-7.470;2023-02-21T14:32:14;100014.38;;;11.59;100.00
64253;BME280;50592;52.958;-7.470;2023-02-21T14:39:48;100016.03;;;11.51;100.00
64253;BME280;50592;52.958;-7.470;2023-02-21T14:42:40;100015.38;;;11.49;100.00
64253;BME280;50592;52.958;-7.470;2023-02-21T14:47:59;100020.09;;;11.37;100.00
64253;BME280;50592;52.958;-7.470;2023-02-21T15:12:51;99994.09;;;11.16;100.00
64253;BME280;50592;52.958;-7.470;2023-02-21T15:15:32;99978.88;;;11.18;100.00
64253;BME280;50592;52.958;-7.470;2023-02-21T15:18:02;99987.78;;;11.17;100.00
64253;BME280;50592;52.958;-7.470;2023-02-21T15:20:30;99979.84;;;11.17;100.00
64253;BME280;50592;52.958;-7.470;2023-02-21T15:23:21;99979.53;;;11.20;100.00
64253;BME280;50592;52.958;-7.470;2023-02-21T15:25:56;99973.25;;;11.21;100.00
64253;BME280;50592;52.958;-7.470;2023-02-21T15:28:25;99964.84;;;11.26;100.00
64253;BME280;50592;52.958;-7.470;2023-02-21T15:33:24;99961.56;;;11.32;100.00
64253;BME280;50592;52.958;-7.470;2023-02-21T15:35:55;99964.38;;;11.31;100.00
64253;BME280;50592;52.958;-7.470;2023-02-21T15:41:01;99961.03;;;11.20;100.00
64253;BME280;50592;52.958;-7.470;2023-02-21T15:43:49;99959.19;;;11.12;100.00
64253;BME280;50592;52.958;-7.470;2023-02-21T15:46:22;99956.34;;;11.06;100.00
64253;BME280;50592;52.958;-7.470;2023-02-21T15:48:49;99950.88;;;10.99;100.00
64253;BME280;50592;52.958;-7.470;2023-02-21T15:51:16;99959.13;;;10.96;100.00
64253;BME280;50592;52.958;-7.470;2023-02-21T15:53:42;99958.81;;;10.99;100.00
64253;BME280;50592;52.958;-7.470;2023-02-21T15:56:28;99952.53;;;11.00;100.00
64253;BME280;50592;52.958;-7.470;2023-02-21T15:59:25;99946.03;;;10.94;100.00
64253;BME280;50592;52.958;-7.470;2023-02-21T16:02:16;99942.44;;;10.95;100.00
64253;BME280;50592;52.958;-7.470;2023-02-21T16:04:48;99934.34;;;10.97;100.00
64253;BME280;50592;52.958;-7.470;2023-02-21T16:09:58;99927.72;;;11.01;100.00